Time;durP1;ratioP1;P1;durP2;ratioP2;P2;SDS_P1;SDS_P2;PMS_P1;PMS_P2;Temp;Humidity;BMP_temperature;BMP_pressure;BME280_temperature;BME280_humidity;BME280_pressure;Samples;Min_cycle;Max_cycle;Signal;HPM_P1;HPM_P2
2023/03/13 00:01:27;;;;;;;8.70;3.53;;;;;;;;;;4965713;28;20434;-80
2023/03/13 00:03:54;;;;;;;11.03;3.60;;;;;;;;;;4948227;29;20489;-81
2023/03/13 00:06:20;;;;;;;8.67;2.57;;;;;;;;;;4959695;28;20919;-81
2023/03/13 00:08:46;;;;;;;11.37;3.03;;;;;;;;;;4951420;28;20518;-79
2023/03/13 00:11:14;;;;;;;6.50;3.10;;;;;;;;;;4953524;28;20529;-82
2023/03/13 00:13:40;;;;;;;11.73;3.57;;;;;;;;;;4955538;28;20442;-80
2023/03/13 00:16:07;;;;;;;11.87;3.73;;;;;;;;;;4956218;28;20429;-81
2023/03/13 00:18:33;;;;;;;13.73;4.53;;;;;;;;;;4948607;28;20501;-81
2023/03/13 00:21:04;;;;;;;5.17;3.30;;;;;;;;;;4962983;28;20441;-80
2023/03/13 00:23:31;;;;;;;10.43;4.10;;;;;;;;;;4946458;28;20465;-80
2023/03/13 00:25:57;;;;;;;10.27;3.57;;;;;;;;;;4926958;29;20730;-81
2023/03/13 00:28:23;;;;;;;10.30;3.33;;;;;;;;;;4967035;28;20446;-81
2023/03/13 00:30:49;;;;;;;8.80;3.60;;;;;;;;;;4945216;28;20454;-81
2023/03/13 00:33:15;;;;;;;12.10;2.80;;;;;;;;;;4953019;28;20430;-82
2023/03/13 00:35:41;;;;;;;13.53;3.50;;;;;;;;;;4941607;28;20831;-80
2023/03/13 00:38:07;;;;;;;3.77;2.20;;;;;;;;;;4942250;28;20499;-80
2023/03/13 00:40:34;;;;;;;7.70;3.03;;;;;;;;;;4958686;28;20453;-80
2023/03/13 00:43:00;;;;;;;20.90;3.10;;;;;;;;;;4955734;28;20536;-79
2023/03/13 00:45:26;;;;;;;12.30;3.10;;;;;;;;;;4944648;28;20479;-80
2023/03/13 00:47:52;;;;;;;11.03;3.70;;;;;;;;;;4938935;28;20422;-79
2023/03/13 00:50:18;;;;;;;17.60;2.80;;;;;;;;;;4946617;28;20445;-80
2023/03/13 00:52:44;;;;;;;6.83;3.97;;;;;;;;;;4946844;28;20462;-79
2023/03/13 00:55:10;;;;;;;7.57;3.30;;;;;;;;;;4953699;28;20521;-78
2023/03/13 00:57:37;;;;;;;8.53;2.90;;;;;;;;;;4929635;28;20470;-80
2023/03/13 01:00:07;;;;;;;19.87;3.87;;;;;;;;;;4937834;28;20752;-80
2023/03/13 01:02:33;;;;;;;7.33;3.30;;;;;;;;;;4947564;28;20493;-80
2023/03/13 01:04:59;;;;;;;7.93;3.20;;;;;;;;;;4943263;28;20542;-79
2023/03/13 01:07:26;;;;;;;9.90;3.10;;;;;;;;;;4946893;28;20933;-80
2023/03/13 01:09:52;;;;;;;9.80;3.07;;;;;;;;;;4946986;28;20473;-82
2023/03/13 01:12:18;;;;;;;8.27;3.10;;;;;;;;;;4943644;28;20417;-82
2023/03/13 01:14:44;;;;;;;5.27;1.77;;;;;;;;;;4952068;28;20458;-80
2023/03/13 01:17:10;;;;;;;13.63;3.47;;;;;;;;;;4948779;28;20560;-81
2023/03/13 01:19:36;;;;;;;9.67;3.20;;;;;;;;;;4930258;29;20445;-81
2023/03/13 01:22:03;;;;;;;5.30;2.63;;;;;;;;;;4944345;28;20484;-80
2023/03/13 01:24:29;;;;;;;20.40;4.90;;;;;;;;;;4929475;29;20533;-81
2023/03/13 01:26:55;;;;;;;12.40;3.83;;;;;;;;;;4947709;28;20630;-80
2023/03/13 01:29:21;;;;;;;3.90;2.40;;;;;;;;;;4946301;28;20430;-80
2023/03/13 01:31:47;;;;;;;10.50;3.43;;;;;;;;;;4952845;28;20933;-81
2023/03/13 01:34:13;;;;;;;11.27;3.93;;;;;;;;;;4948798;28;20791;-80
2023/03/13 01:36:39;;;;;;;10.67;3.37;;;;;;;;;;4945714;28;20434;-80
2023/03/13 01:39:05;;;;;;;15.63;2.77;;;;;;;;;;4961701;28;20848;-80
2023/03/13 01:41:31;;;;;;;11.27;2.83;;;;;;;;;;4958378;28;20532;-79
2023/03/13 01:43:57;;;;;;;18.77;3.93;;;;;;;;;;4948469;28;20438;-80
2023/03/13 01:46:26;;;;;;;9.53;2.43;;;;;;;;;;4936302;29;20449;-80
2023/03/13 01:49:10;;;;;;;6.50;2.80;;;;;;;;;;4954682;28;20449;-81
2023/03/13 01:51:39;;;;;;;6.20;3.50;;;;;;;;;;4959284;28;20441;-80
2023/03/13 01:54:09;;;;;;;11.00;3.07;;;;;;;;;;4958473;28;20438;-80
2023/03/13 01:56:42;;;;;;;8.50;2.50;;;;;;;;;;4957693;28;20459;-81
2023/03/13 01:59:09;;;;;;;16.97;3.43;;;;;;;;;;4933678;29;20438;-79
2023/03/13 02:01:38;;;;;;;11.07;4.20;;;;;;;;;;4956122;28;20793;-80
2023/03/13 02:04:04;;;;;;;15.00;2.97;;;;;;;;;;4949439;28;20464;-80
2023/03/13 02:06:32;;;;;;;11.83;4.50;;;;;;;;;;4958669;28;20442;-80
2023/03/13 02:09:03;;;;;;;10.83;3.77;;;;;;;;;;4952178;28;20910;-80
2023/03/13 02:11:32;;;;;;;8.43;3.60;;;;;;;;;;4956864;28;20437;-80
2023/03/13 02:13:58;;;;;;;14.43;4.17;;;;;;;;;;4955226;28;20461;-80
2023/03/13 02:16:25;;;;;;;10.57;4.20;;;;;;;;;;4938469;29;20635;-80
2023/03/13 02:18:51;;;;;;;7.63;3.33;;;;;;;;;;4954754;28;20494;-80
2023/03/13 02:21:25;;;;;;;14.13;3.80;;;;;;;;;;4959837;28;20491;-81
2023/03/13 02:24:02;;;;;;;12.10;3.53;;;;;;;;;;4936535;28;20420;-79
2023/03/13 02:26:31;;;;;;;8.60;3.07;;;;;;;;;;4957339;28;20471;-79
2023/03/13 02:28:57;;;;;;;16.07;3.43;;;;;;;;;;4957384;28;20450;-79
2023/03/13 02:31:23;;;;;;;12.27;3.20;;;;;;;;;;4951053;28;20438;-78
2023/03/13 02:33:49;;;;;;;10.43;3.27;;;;;;;;;;4934969;29;20446;-79
2023/03/13 02:36:15;;;;;;;5.40;2.50;;;;;;;;;;4961201;28;21004;-79
2023/03/13 02:38:49;;;;;;;7.07;3.50;;;;;;;;;;4963102;28;20823;-80
2023/03/13 02:41:15;;;;;;;9.37;3.33;;;;;;;;;;4947237;28;20820;-79
2023/03/13 02:43:41;;;;;;;10.33;3.10;;;;;;;;;;4956854;28;20869;-79
2023/03/13 02:46:10;;;;;;;5.73;2.80;;;;;;;;;;4937664;29;20593;-80
2023/03/13 02:48:38;;;;;;;12.03;3.17;;;;;;;;;;4934881;28;20451;-79
2023/03/13 02:51:05;;;;;;;4.43;2.43;;;;;;;;;;4964536;28;20430;-79
2023/03/13 02:53:32;;;;;;;10.50;3.27;;;;;;;;;;4949732;28;20475;-79
2023/03/13 02:55:57;;;;;;;13.90;3.80;;;;;;;;;;4954489;28;20906;-80
2023/03/13 02:58:24;;;;;;;6.33;4.17;;;;;;;;;;4960518;28;20465;-79
2023/03/13 03:00:50;;;;;;;6.17;2.30;;;;;;;;;;4949244;28;20529;-79
2023/03/13 03:03:16;;;;;;;3.43;2.47;;;;;;;;;;4963537;28;20440;-79
2023/03/13 03:05:42;;;;;;;3.90;2.53;;;;;;;;;;4955220;28;20446;-79
2023/03/13 03:08:08;;;;;;;7.60;3.00;;;;;;;;;;4954691;28;20442;-79
2023/03/13 03:10:35;;;;;;;5.40;2.37;;;;;;;;;;4929047;29;20772;-79
2023/03/13 03:13:01;;;;;;;3.53;2.23;;;;;;;;;;4950928;28;20545;-80
2023/03/13 03:15:27;;;;;;;8.67;2.57;;;;;;;;;;4950882;28;20516;-80
2023/03/13 03:17:53;;;;;;;6.03;3.13;;;;;;;;;;4956588;28;20565;-79
2023/03/13 03:20:19;;;;;;;3.93;2.70;;;;;;;;;;4952143;28;20442;-79
2023/03/13 03:22:45;;;;;;;11.43;5.67;;;;;;;;;;4947043;28;20546;-80
2023/03/13 03:25:11;;;;;;;4.77;1.90;;;;;;;;;;4948235;28;20453;-79
2023/03/13 03:27:37;;;;;;;5.80;1.93;;;;;;;;;;4957881;28;21099;-80
2023/03/13 03:30:04;;;;;;;3.70;1.90;;;;;;;;;;4963466;28;23541;-80
2023/03/13 03:32:30;;;;;;;6.63;2.23;;;;;;;;;;4958678;28;20489;-79
2023/03/13 03:34:56;;;;;;;2.63;2.20;;;;;;;;;;4951460;28;20692;-80
2023/03/13 03:37:22;;;;;;;3.53;2.23;;;;;;;;;;4954189;29;20500;-82
2023/03/13 03:39:48;;;;;;;6.27;2.07;;;;;;;;;;4959365;28;20516;-81
2023/03/13 03:42:14;;;;;;;3.50;2.20;;;;;;;;;;4961061;28;20757;-80
2023/03/13 03:44:41;;;;;;;8.13;2.57;;;;;;;;;;4949087;28;20808;-80
2023/03/13 03:47:07;;;;;;;6.63;1.97;;;;;;;;;;4956602;29;20533;-81
2023/03/13 03:49:33;;;;;;;5.77;1.70;;;;;;;;;;4966044;28;20505;-81
2023/03/13 03:51:59;;;;;;;4.40;2.17;;;;;;;;;;4957456;28;20704;-82
2023/03/13 03:54:25;;;;;;;8.97;2.30;;;;;;;;;;4959106;28;20434;-80
2023/03/13 03:56:51;;;;;;;2.70;1.70;;;;;;;;;;4940220;29;20970;-80
2023/03/13 03:59:17;;;;;;;2.00;1.30;;;;;;;;;;4967425;28;20597;-81
2023/03/13 04:01:43;;;;;;;4.60;4.20;;;;;;;;;;4954531;28;20453;-81
2023/03/13 04:04:09;;;;;;;5.50;1.80;;;;;;;;;;4931086;29;20509;-81
2023/03/13 04:06:35;;;;;;;2.00;1.50;;;;;;;;;;4940916;28;20592;-81
2023/03/13 04:09:01;;;;;;;1.37;1.37;;;;;;;;;;4950830;28;20521;-80
2023/03/13 04:11:27;;;;;;;2.00;1.60;;;;;;;;;;4931648;29;20485;-81
2023/03/13 04:13:53;;;;;;;2.73;1.80;;;;;;;;;;4946342;28;20450;-80
2023/03/13 04:16:19;;;;;;;8.70;1.53;;;;;;;;;;4953759;28;20942;-80
2023/03/13 04:18:45;;;;;;;3.17;1.87;;;;;;;;;;4946320;28;20465;-80
2023/03/13 04:21:11;;;;;;;2.93;1.27;;;;;;;;;;4949593;28;20442;-81
2023/03/13 04:23:36;;;;;;;5.10;1.57;;;;;;;;;;4946478;28;20438;-81
2023/03/13 04:26:02;;;;;;;4.73;1.47;;;;;;;;;;4962480;28;20508;-80
2023/03/13 04:28:28;;;;;;;2.80;1.50;;;;;;;;;;4947198;28;20453;-81
2023/03/13 04:30:56;;;;;;;3.13;1.20;;;;;;;;;;4935400;29;20544;-81
2023/03/13 04:33:22;;;;;;;1.87;1.77;;;;;;;;;;4954986;28;20438;-82
2023/03/13 04:35:48;;;;;;;1.47;1.40;;;;;;;;;;4945230;28;21004;-81
2023/03/13 04:38:14;;;;;;;3.23;1.40;;;;;;;;;;4956590;28;20453;-80
2023/03/13 04:40:42;;;;;;;2.20;1.87;;;;;;;;;;4949053;28;20442;-79
2023/03/13 04:43:08;;;;;;;2.10;1.40;;;;;;;;;;4935844;29;20473;-81
2023/03/13 04:45:34;;;;;;;1.43;1.00;;;;;;;;;;4950058;28;20441;-81
2023/03/13 04:48:00;;;;;;;1.83;1.00;;;;;;;;;;4954453;28;20981;-79
2023/03/13 04:50:26;;;;;;;3.43;1.00;;;;;;;;;;4951060;28;20529;-80
2023/03/13 04:52:52;;;;;;;1.33;1.33;;;;;;;;;;4946848;28;21044;-79
2023/03/13 04:55:18;;;;;;;2.13;1.53;;;;;;;;;;4955782;28;20439;-80
2023/03/13 04:57:44;;;;;;;8.10;2.57;;;;;;;;;;4939679;28;20466;-81
2023/03/13 05:00:10;;;;;;;1.30;1.20;;;;;;;;;;4947642;28;20443;-83
2023/03/13 05:02:36;;;;;;;1.30;1.30;;;;;;;;;;4931103;29;20488;-82
2023/03/13 05:05:02;;;;;;;1.40;1.30;;;;;;;;;;4956389;28;20451;-82
2023/03/13 05:07:28;;;;;;;1.40;1.40;;;;;;;;;;4948548;28;20783;-82
2023/03/13 05:09:54;;;;;;;3.07;1.30;;;;;;;;;;4957402;28;20437;-81
2023/03/13 05:12:20;;;;;;;1.90;1.43;;;;;;;;;;4928536;29;21129;-78
2023/03/13 05:14:46;;;;;;;1.40;1.40;;;;;;;;;;4947790;28;20449;-78
2023/03/13 05:17:12;;;;;;;1.50;1.40;;;;;;;;;;4939083;29;20528;-78
2023/03/13 05:19:38;;;;;;;1.00;1.00;;;;;;;;;;4933607;28;20434;-77
2023/03/13 05:22:04;;;;;;;4.23;1.40;;;;;;;;;;4943186;29;20430;-79
2023/03/13 05:24:30;;;;;;;1.63;1.63;;;;;;;;;;4947426;28;20697;-80
2023/03/13 05:26:56;;;;;;;3.40;1.50;;;;;;;;;;4947184;28;20491;-80
2023/03/13 05:29:22;;;;;;;4.77;1.70;;;;;;;;;;4946353;28;21069;-80
2023/03/13 05:31:48;;;;;;;1.47;1.47;;;;;;;;;;4944295;28;20662;-81
2023/03/13 05:34:14;;;;;;;3.17;2.00;;;;;;;;;;4956176;28;20567;-81
2023/03/13 05:36:40;;;;;;;1.67;1.67;;;;;;;;;;4954654;28;20527;-80
2023/03/13 05:39:06;;;;;;;2.30;1.63;;;;;;;;;;4939311;28;20957;-81
2023/03/13 05:41:32;;;;;;;1.97;1.87;;;;;;;;;;4960575;28;20570;-80
2023/03/13 05:43:58;;;;;;;1.77;1.70;;;;;;;;;;4955028;28;20518;-81
2023/03/13 05:46:24;;;;;;;2.07;2.07;;;;;;;;;;4949985;28;20465;-81
2023/03/13 05:48:51;;;;;;;1.47;1.47;;;;;;;;;;4951043;28;20474;-83
2023/03/13 05:51:17;;;;;;;2.10;2.00;;;;;;;;;;4949993;28;20453;-83
2023/03/13 05:53:43;;;;;;;1.73;1.73;;;;;;;;;;4947993;28;20953;-82
2023/03/13 05:56:09;;;;;;;1.57;1.57;;;;;;;;;;4951624;28;20548;-79
2023/03/13 05:58:35;;;;;;;2.57;2.47;;;;;;;;;;4950147;28;20488;-83
2023/03/13 06:01:08;;;;;;;1.90;1.90;;;;;;;;;;4951766;28;20796;-81
2023/03/13 06:03:34;;;;;;;1.93;1.83;;;;;;;;;;4957047;28;20465;-81
2023/03/13 06:06:00;;;;;;;1.67;1.57;;;;;;;;;;4961428;28;20453;-82
2023/03/13 06:08:26;;;;;;;1.70;1.70;;;;;;;;;;4963363;28;20472;-81
2023/03/13 06:10:53;;;;;;;1.90;1.90;;;;;;;;;;4948571;28;20596;-82
2023/03/13 06:13:19;;;;;;;1.47;1.47;;;;;;;;;;4949087;28;20529;-83
2023/03/13 06:15:51;;;;;;;2.00;2.00;;;;;;;;;;4919031;29;20446;-76
2023/03/13 06:18:17;;;;;;;0.80;0.80;;;;;;;;;;4950242;28;21003;-82
2023/03/13 06:20:43;;;;;;;1.20;1.17;;;;;;;;;;4938918;29;20426;-82
2023/03/13 06:23:08;;;;;;;2.73;2.63;;;;;;;;;;4944442;28;20442;-79
2023/03/13 06:25:34;;;;;;;1.90;1.23;;;;;;;;;;4952124;28;20809;-82
2023/03/13 06:28:00;;;;;;;1.50;1.40;;;;;;;;;;4951912;28;20465;-81
2023/03/13 06:30:26;;;;;;;2.53;1.30;;;;;;;;;;4930870;28;20498;-81
2023/03/13 06:32:52;;;;;;;3.23;1.40;;;;;;;;;;4936682;28;20528;-82
2023/03/13 06:35:18;;;;;;;1.40;1.13;;;;;;;;;;4951247;28;20438;-82
2023/03/13 06:37:44;;;;;;;1.53;1.53;;;;;;;;;;4949336;29;20473;-82
2023/03/13 06:40:10;;;;;;;1.50;1.40;;;;;;;;;;4945525;28;20462;-83
2023/03/13 06:42:36;;;;;;;2.37;2.27;;;;;;;;;;4955714;28;20453;-81
2023/03/13 06:45:03;;;;;;;2.07;1.70;;;;;;;;;;4948179;28;20481;-81
2023/03/13 06:47:34;;;;;;;1.20;1.20;;;;;;;;;;4954600;29;20448;-79
2023/03/13 06:50:01;;;;;;;0.93;0.93;;;;;;;;;;4935660;28;20446;-80
2023/03/13 06:52:27;;;;;;;2.03;1.20;;;;;;;;;;4956861;28;20446;-82
2023/03/13 06:54:53;;;;;;;2.43;2.33;;;;;;;;;;4953416;28;20434;-84
2023/03/13 06:57:19;;;;;;;0.90;0.90;;;;;;;;;;4961357;28;20631;-82
2023/03/13 06:59:45;;;;;;;1.97;1.87;;;;;;;;;;4952707;28;20521;-83
2023/03/13 07:02:11;;;;;;;1.30;1.30;;;;;;;;;;4945103;28;20477;-83
2023/03/13 07:04:38;;;;;;;1.70;1.60;;;;;;;;;;4939062;28;20722;-82
2023/03/13 07:07:04;;;;;;;4.33;1.83;;;;;;;;;;4918798;29;20454;-83
2023/03/13 07:09:30;;;;;;;2.50;2.40;;;;;;;;;;4940044;28;20443;-83
2023/03/13 07:11:57;;;;;;;1.80;1.80;;;;;;;;;;4944861;28;20462;-83
2023/03/13 07:14:23;;;;;;;1.17;1.17;;;;;;;;;;4954993;28;20446;-80
2023/03/13 07:16:49;;;;;;;1.33;1.33;;;;;;;;;;4949205;28;20546;-84
2023/03/13 07:19:16;;;;;;;1.80;1.80;;;;;;;;;;4941141;28;20889;-83
2023/03/13 07:21:42;;;;;;;1.87;1.87;;;;;;;;;;4957813;28;20859;-81
2023/03/13 07:24:08;;;;;;;1.17;1.07;;;;;;;;;;4933844;28;20466;-83
2023/03/13 07:26:34;;;;;;;3.37;3.07;;;;;;;;;;4962619;28;20801;-81
2023/03/13 07:29:00;;;;;;;3.00;1.57;;;;;;;;;;4960897;28;20441;-81
2023/03/13 07:31:28;;;;;;;5.47;2.37;;;;;;;;;;4945947;28;20640;-80
2023/03/13 07:33:57;;;;;;;1.30;1.30;;;;;;;;;;4941995;28;20445;-81
2023/03/13 07:36:23;;;;;;;1.10;1.10;;;;;;;;;;4948896;28;20528;-82
2023/03/13 07:38:50;;;;;;;2.33;1.77;;;;;;;;;;4957153;28;20488;-81
2023/03/13 07:41:17;;;;;;;1.80;1.80;;;;;;;;;;4937634;28;20751;-79
2023/03/13 07:43:43;;;;;;;1.80;1.70;;;;;;;;;;4945928;28;20435;-81
2023/03/13 07:46:10;;;;;;;1.17;1.17;;;;;;;;;;4934236;28;20437;-78
2023/03/13 07:48:38;;;;;;;2.40;2.10;;;;;;;;;;4938111;28;21749;-81
2023/03/13 07:51:05;;;;;;;2.53;1.90;;;;;;;;;;4951244;28;20842;-83
2023/03/13 07:53:31;;;;;;;1.97;1.87;;;;;;;;;;4937999;28;20875;-83
2023/03/13 07:55:58;;;;;;;2.70;2.07;;;;;;;;;;4945891;28;20891;-83
2023/03/13 07:58:25;;;;;;;2.17;1.67;;;;;;;;;;4944117;28;20481;-83
2023/03/13 08:00:51;;;;;;;2.50;2.40;;;;;;;;;;4939450;28;20441;-85
2023/03/13 08:03:17;;;;;;;1.43;1.43;;;;;;;;;;4941856;28;20458;-84
2023/03/13 08:05:43;;;;;;;1.70;1.60;;;;;;;;;;4953161;28;20450;-84
2023/03/13 08:08:09;;;;;;;2.43;2.20;;;;;;;;;;4973331;28;20433;-85
2023/03/13 08:10:35;;;;;;;2.83;2.00;;;;;;;;;;4971388;28;20445;-85
2023/03/13 08:13:01;;;;;;;2.23;1.90;;;;;;;;;;4964514;28;20954;-83
2023/03/13 08:15:27;;;;;;;2.63;2.27;;;;;;;;;;4965787;28;20446;-83
2023/03/13 08:17:53;;;;;;;2.43;2.30;;;;;;;;;;4978261;28;20501;-81
2023/03/13 08:20:20;;;;;;;3.27;1.97;;;;;;;;;;4956487;28;20734;-84
2023/03/13 08:22:46;;;;;;;2.20;2.00;;;;;;;;;;4961303;28;20910;-83
2023/03/13 08:25:14;;;;;;;2.40;1.90;;;;;;;;;;4975561;28;20814;-84
2023/03/13 08:27:40;;;;;;;2.97;2.77;;;;;;;;;;4969359;28;20462;-83
2023/03/13 08:30:06;;;;;;;2.20;2.00;;;;;;;;;;4966273;28;20517;-82
2023/03/13 08:32:33;;;;;;;1.97;1.97;;;;;;;;;;4977095;28;20488;-83
2023/03/13 08:34:59;;;;;;;1.67;1.50;;;;;;;;;;4956057;28;20939;-84
2023/03/13 08:37:25;;;;;;;3.50;2.10;;;;;;;;;;4963385;28;20476;-84
2023/03/13 08:39:53;;;;;;;7.17;2.47;;;;;;;;;;4962258;28;21047;-81
2023/03/13 08:42:19;;;;;;;3.80;2.73;;;;;;;;;;4967299;28;20445;-82
2023/03/13 08:44:47;;;;;;;4.93;2.00;;;;;;;;;;4969074;28;20434;-84
2023/03/13 08:47:13;;;;;;;5.17;1.80;;;;;;;;;;4965893;28;20454;-81
2023/03/13 08:49:39;;;;;;;3.70;2.30;;;;;;;;;;4952329;28;20513;-82
2023/03/13 08:52:05;;;;;;;4.27;3.83;;;;;;;;;;4958215;28;20504;-86
2023/03/13 08:54:32;;;;;;;2.83;2.53;;;;;;;;;;4960453;28;20434;-83
2023/03/13 08:56:58;;;;;;;3.60;1.67;;;;;;;;;;4961054;28;20894;-82
2023/03/13 08:59:25;;;;;;;2.37;2.27;;;;;;;;;;4960401;28;20449;-84
2023/03/13 09:01:51;;;;;;;1.23;1.13;;;;;;;;;;4957017;28;20442;-84
2023/03/13 09:04:18;;;;;;;2.40;2.20;;;;;;;;;;4961808;28;20445;-83
2023/03/13 09:06:44;;;;;;;1.97;1.97;;;;;;;;;;4929148;28;20550;-80
2023/03/13 09:09:11;;;;;;;2.23;2.17;;;;;;;;;;4935335;28;20449;-84
2023/03/13 09:14:13;;;;;;;6.03;3.10;;;;;;;;;;1253455;23;21858;-77
2023/03/13 09:16:39;;;;;;;2.43;2.03;;;;;;;;;;4931497;28;20456;-79
2023/03/13 09:21:48;;;;;;;2.30;2.07;;;;;;;;;;1283131;23;20711;-76
2023/03/13 09:24:20;;;;;;;2.10;1.97;;;;;;;;;;4922972;28;20454;-78
2023/03/13 09:26:52;;;;;;;2.77;2.00;;;;;;;;;;4949039;28;20436;-76
2023/03/13 09:29:21;;;;;;;1.97;1.87;;;;;;;;;;4931369;28;20451;-78
2023/03/13 09:32:04;;;;;;;5.57;2.97;;;;;;;;;;4956154;28;20497;-78
2023/03/13 09:34:33;;;;;;;2.10;1.80;;;;;;;;;;4946119;28;20518;-77
2023/03/13 09:37:02;;;;;;;2.90;2.80;;;;;;;;;;4928451;28;20476;-75
2023/03/13 09:39:38;;;;;;;2.40;1.97;;;;;;;;;;4930302;28;20869;-79
2023/03/13 09:42:12;;;;;;;2.80;2.60;;;;;;;;;;4928559;28;20434;-78
2023/03/13 09:44:57;;;;;;;2.37;2.27;;;;;;;;;;4958388;28;20423;-78
2023/03/13 09:47:40;;;;;;;2.63;2.43;;;;;;;;;;4934881;28;20932;-76
2023/03/13 09:50:22;;;;;;;2.70;2.60;;;;;;;;;;4944109;28;20508;-78
2023/03/13 09:52:50;;;;;;;2.93;2.60;;;;;;;;;;4924817;28;20454;-77
2023/03/13 09:58:23;;;;;;;3.03;2.20;;;;;;;;;;4938258;28;20494;-77
2023/03/13 10:01:18;;;;;;;5.03;2.63;;;;;;;;;;4929067;28;20516;-76
2023/03/13 10:04:22;;;;;;;2.73;2.53;;;;;;;;;;4917720;28;21063;-77
2023/03/13 10:06:50;;;;;;;2.70;2.50;;;;;;;;;;4948320;28;20846;-77
2023/03/13 10:09:22;;;;;;;2.83;2.63;;;;;;;;;;4944025;28;20541;-77
2023/03/13 10:11:51;;;;;;;2.90;2.70;;;;;;;;;;4945271;28;20473;-78
2023/03/13 10:14:27;;;;;;;2.37;2.37;;;;;;;;;;4922218;29;20459;-78
2023/03/13 10:17:02;;;;;;;3.03;2.53;;;;;;;;;;4923236;29;20434;-77
2023/03/13 10:19:36;;;;;;;3.37;1.77;;;;;;;;;;4946531;28;20703;-77
2023/03/13 10:22:10;;;;;;;1.70;1.60;;;;;;;;;;4946097;28;20508;-78
2023/03/13 10:24:46;;;;;;;2.03;1.93;;;;;;;;;;4929494;28;20970;-78
2023/03/13 10:27:14;;;;;;;2.77;2.00;;;;;;;;;;4906911;29;20721;-81
2023/03/13 10:29:43;;;;;;;2.07;2.07;;;;;;;;;;4932188;28;20471;-78
2023/03/13 10:32:15;;;;;;;2.03;2.03;;;;;;;;;;4914316;29;20451;-78
2023/03/13 10:34:48;;;;;;;1.83;1.83;;;;;;;;;;4935098;29;20498;-78
2023/03/13 10:37:16;;;;;;;1.40;1.40;;;;;;;;;;4933096;29;20469;-78
2023/03/13 10:39:45;;;;;;;5.00;4.50;;;;;;;;;;4909594;29;20526;-79
2023/03/13 10:42:20;;;;;;;3.70;2.10;;;;;;;;;;4912526;29;20538;-79
2023/03/13 10:44:58;;;;;;;3.03;1.43;;;;;;;;;;4913854;29;20448;-79
2023/03/13 10:47:25;;;;;;;2.83;2.00;;;;;;;;;;4917422;29;20518;-77
2023/03/13 10:49:58;;;;;;;1.77;1.70;;;;;;;;;;4905139;29;20798;-80
2023/03/13 10:52:44;;;;;;;2.27;2.13;;;;;;;;;;4910870;29;20446;-78
2023/03/13 10:55:17;;;;;;;1.63;1.53;;;;;;;;;;4910418;29;20437;-80
2023/03/13 10:58:09;;;;;;;;;;;;;;;;;;;;;
2023/03/13 11:00:49;;;;;;;1.73;1.70;;;;;;;;;;4921582;28;20809;-77
2023/03/13 11:03:24;;;;;;;2.20;1.60;;;;;;;;;;4919567;29;20467;-78
2023/03/13 11:06:16;;;;;;;1.70;1.60;;;;;;;;;;4913475;29;20779;-79
2023/03/13 11:09:08;;;;;;;;;;;;;;;;;;;;;
2023/03/13 11:11:51;;;;;;;1.70;1.60;;;;;;;;;;4936506;29;20427;-78
2023/03/13 11:15:07;;;;;;;3.07;1.40;;;;;;;;;;4927843;29;20484;-78
2023/03/13 11:17:58;;;;;;;1.60;1.53;;;;;;;;;;4892853;29;20467;-76
2023/03/13 11:20:28;;;;;;;0.90;0.90;;;;;;;;;;4926410;29;20451;-77
2023/03/13 11:23:18;;;;;;;1.37;1.37;;;;;;;;;;4943495;28;20465;-74
2023/03/13 11:26:09;;;;;;;1.00;1.00;;;;;;;;;;4940562;28;20715;-77
2023/03/13 11:28:44;;;;;;;1.40;1.30;;;;;;;;;;4926621;28;20441;-76
2023/03/13 11:31:36;;;;;;;1.30;1.20;;;;;;;;;;4937280;28;20833;-80
2023/03/13 11:34:18;;;;;;;2.67;1.53;;;;;;;;;;4933567;28;20450;-76
2023/03/13 11:36:48;;;;;;;1.10;1.10;;;;;;;;;;4928377;28;20503;-76
2023/03/13 11:39:30;;;;;;;3.03;1.40;;;;;;;;;;4936206;28;20461;-77
2023/03/13 11:42:01;;;;;;;1.43;1.43;;;;;;;;;;4942784;28;20541;-77
2023/03/13 11:44:27;;;;;;;1.97;1.13;;;;;;;;;;4944029;28;20767;-76
2023/03/13 11:46:53;;;;;;;1.40;1.30;;;;;;;;;;4947493;28;20537;-76
2023/03/13 11:49:39;;;;;;;0.93;0.93;;;;;;;;;;4943872;28;20474;-76
2023/03/13 11:52:23;;;;;;;1.00;1.00;;;;;;;;;;4939464;28;20462;-75
2023/03/13 11:55:07;;;;;;;5.23;1.10;;;;;;;;;;4947688;28;20433;-75
2023/03/13 11:57:57;;;;;;;1.30;1.23;;;;;;;;;;4949703;28;20765;-74
2023/03/13 12:00:46;;;;;;;3.80;1.10;;;;;;;;;;4904308;28;20465;-77
2023/03/13 12:03:12;;;;;;;1.57;1.57;;;;;;;;;;4943554;28;21388;-76
2023/03/13 12:05:41;;;;;;;6.47;2.37;;;;;;;;;;4939165;28;20450;-78
2023/03/13 12:08:15;;;;;;;2.40;1.27;;;;;;;;;;4920762;28;20451;-76
2023/03/13 12:10:52;;;;;;;3.50;1.47;;;;;;;;;;4943938;28;20426;-77
2023/03/13 12:13:17;;;;;;;0.90;0.90;;;;;;;;;;4928958;28;20892;-76
2023/03/13 12:15:45;;;;;;;1.50;1.03;;;;;;;;;;4943411;28;20537;-77
2023/03/13 12:18:20;;;;;;;1.23;0.70;;;;;;;;;;4933193;28;20856;-76
2023/03/13 12:21:01;;;;;;;1.43;1.30;;;;;;;;;;4942293;28;20432;-76
2023/03/13 12:23:36;;;;;;;1.90;1.30;;;;;;;;;;4916202;28;20566;-76
2023/03/13 12:26:17;;;;;;;0.60;0.60;;;;;;;;;;4926157;29;20788;-76
2023/03/13 12:29:02;;;;;;;1.33;1.00;;;;;;;;;;4912207;29;20483;-74
2023/03/13 12:31:38;;;;;;;0.60;0.60;;;;;;;;;;4931163;29;20429;-76
2023/03/13 12:34:11;;;;;;;0.90;0.90;;;;;;;;;;4915361;29;20447;-75
2023/03/13 12:36:43;;;;;;;0.90;0.90;;;;;;;;;;4930083;29;20800;-75
2023/03/13 12:39:27;;;;;;;0.80;0.80;;;;;;;;;;4916269;29;20476;-75
2023/03/13 12:42:06;;;;;;;1.50;1.40;;;;;;;;;;4917228;29;20446;-74
2023/03/13 12:44:33;;;;;;;1.90;1.80;;;;;;;;;;4916204;29;20982;-74
2023/03/13 12:47:10;;;;;;;1.43;0.80;;;;;;;;;;4926070;29;20607;-76
2023/03/13 12:49:36;;;;;;;1.00;1.00;;;;;;;;;;4930294;28;20450;-75
2023/03/13 12:52:23;;;;;;;2.57;2.50;;;;;;;;;;4927165;29;20832;-76
2023/03/13 12:54:57;;;;;;;0.43;0.43;;;;;;;;;;4927572;29;20566;-75
2023/03/13 12:57:38;;;;;;;1.20;1.20;;;;;;;;;;4916956;29;21186;-75
2023/03/13 13:00:11;;;;;;;0.70;0.67;;;;;;;;;;4915419;29;20434;-75
2023/03/13 13:02:37;;;;;;;0.90;0.83;;;;;;;;;;4926791;29;20525;-76
2023/03/13 13:05:03;;;;;;;6.97;4.90;;;;;;;;;;4928120;29;20439;-74
2023/03/13 13:07:34;;;;;;;2.20;2.10;;;;;;;;;;4933708;29;20435;-76
2023/03/13 13:10:00;;;;;;;0.80;0.80;;;;;;;;;;4911020;29;20453;-76
2023/03/13 13:12:37;;;;;;;1.23;0.90;;;;;;;;;;4917189;29;20443;-77
2023/03/13 13:15:04;;;;;;;0.50;0.50;;;;;;;;;;4913586;29;20458;-74
2023/03/13 13:17:33;;;;;;;1.00;1.00;;;;;;;;;;4926296;29;20748;-74
2023/03/13 13:20:19;;;;;;;0.50;0.50;;;;;;;;;;4933003;29;20422;-76
2023/03/13 13:22:48;;;;;;;1.00;1.00;;;;;;;;;;4916465;29;20465;-76
2023/03/13 13:25:20;;;;;;;2.00;1.90;;;;;;;;;;4941920;28;20472;-77
2023/03/13 13:27:49;;;;;;;1.50;1.50;;;;;;;;;;4940750;28;20533;-76
2023/03/13 13:30:18;;;;;;;1.33;0.97;;;;;;;;;;4952831;28;20460;-76
2023/03/13 13:32:48;;;;;;;0.70;0.70;;;;;;;;;;4946043;28;20472;-75
2023/03/13 13:35:23;;;;;;;0.93;0.93;;;;;;;;;;4957005;28;20446;-77
2023/03/13 13:37:50;;;;;;;1.80;1.00;;;;;;;;;;4933155;28;20604;-76
2023/03/13 13:40:26;;;;;;;1.10;1.10;;;;;;;;;;4935485;28;20798;-75
2023/03/13 13:42:59;;;;;;;1.00;0.90;;;;;;;;;;4954653;28;20818;-76
2023/03/13 13:45:25;;;;;;;1.10;1.00;;;;;;;;;;4963032;28;20459;-76
2023/03/13 13:47:51;;;;;;;2.53;1.20;;;;;;;;;;4954386;28;20434;-77
2023/03/13 13:50:22;;;;;;;2.70;0.80;;;;;;;;;;4955768;28;20466;-75
2023/03/13 13:52:48;;;;;;;2.63;1.50;;;;;;;;;;4958238;28;20444;-76
2023/03/13 13:55:29;;;;;;;1.03;0.80;;;;;;;;;;4949575;28;21048;-77
2023/03/13 13:57:59;;;;;;;3.20;1.13;;;;;;;;;;4954392;28;20485;-75
2023/03/13 14:00:34;;;;;;;5.20;0.87;;;;;;;;;;4959381;28;20437;-75
2023/03/13 14:03:00;;;;;;;1.60;1.50;;;;;;;;;;4965920;28;20436;-76
2023/03/13 14:05:33;;;;;;;1.70;1.30;;;;;;;;;;4960767;28;20980;-75
2023/03/13 14:08:17;;;;;;;3.60;0.83;;;;;;;;;;4950711;28;20433;-75
2023/03/13 14:10:45;;;;;;;1.43;1.03;;;;;;;;;;4954386;28;20791;-75
2023/03/13 14:13:11;;;;;;;1.90;1.00;;;;;;;;;;4948351;28;20450;-77
2023/03/13 14:15:40;;;;;;;4.20;2.50;;;;;;;;;;4948123;28;20947;-76
2023/03/13 14:18:17;;;;;;;1.30;1.30;;;;;;;;;;4948567;28;20473;-75
2023/03/13 14:20:49;;;;;;;5.47;1.40;;;;;;;;;;4952309;28;20731;-77
2023/03/13 14:23:27;;;;;;;3.70;1.40;;;;;;;;;;4952954;28;20454;-74
2023/03/13 14:25:53;;;;;;;1.13;1.13;;;;;;;;;;4953464;28;20453;-75
2023/03/13 14:28:19;;;;;;;1.53;1.30;;;;;;;;;;4953248;28;20477;-75
2023/03/13 14:30:46;;;;;;;1.30;1.30;;;;;;;;;;4939207;28;20434;-75
2023/03/13 14:33:12;;;;;;;1.20;1.20;;;;;;;;;;4956565;28;21029;-76
2023/03/13 14:35:39;;;;;;;2.43;1.30;;;;;;;;;;4958215;28;20773;-75
2023/03/13 14:38:05;;;;;;;2.10;1.20;;;;;;;;;;4957854;28;20477;-74
2023/03/13 14:40:35;;;;;;;1.33;0.90;;;;;;;;;;4955424;28;20437;-75
2023/03/13 14:43:01;;;;;;;1.40;1.23;;;;;;;;;;4938995;28;20475;-76
2023/03/13 14:45:29;;;;;;;1.90;1.03;;;;;;;;;;4958313;28;20442;-74
2023/03/13 14:48:00;;;;;;;3.17;1.50;;;;;;;;;;4953346;28;20956;-76
2023/03/13 14:50:27;;;;;;;0.90;0.90;;;;;;;;;;4952039;28;20441;-74
2023/03/13 14:52:55;;;;;;;0.90;0.90;;;;;;;;;;4957618;28;20433;-74
2023/03/13 14:55:21;;;;;;;1.33;1.07;;;;;;;;;;4959952;28;20521;-76
2023/03/13 14:57:55;;;;;;;0.90;0.90;;;;;;;;;;4944401;28;20571;-75
2023/03/13 15:00:29;;;;;;;1.03;1.00;;;;;;;;;;4958844;28;20430;-75
2023/03/13 15:03:20;;;;;;;4.40;1.30;;;;;;;;;;4951826;28;20476;-76
2023/03/13 15:05:50;;;;;;;4.00;3.00;;;;;;;;;;4965756;28;20426;-76